Time;durP1;ratioP1;P1;durP2;ratioP2;P2;SDS_P1;SDS_P2;PMS_P1;PMS_P2;Temp;Humidity;BMP_temperature;BMP_pressure;BME280_temperature;BME280_humidity;BME280_pressure;Samples;Min_cycle;Max_cycle;Signal;HPM_P1;HPM_P2
2022/08/20 00:01:24;;;;;;;31.98;25.35;;;17.30;99.90;;;;;;4988379;28;20059;-72
2022/08/20 00:03:55;;;;;;;35.28;25.88;;;17.20;99.90;;;;;;4978016;28;20049;-72
2022/08/20 00:06:27;;;;;;;34.53;27.05;;;17.30;99.90;;;;;;4984105;28;20386;-72
2022/08/20 00:08:59;;;;;;;33.17;27.23;;;17.30;99.90;;;;;;4993582;28;20060;-72
2022/08/20 00:11:32;;;;;;;24.63;22.02;;;17.30;99.90;;;;;;4994667;28;20053;-72
2022/08/20 00:14:05;;;;;;;29.45;24.13;;;17.30;99.90;;;;;;5002475;28;20050;-72
2022/08/20 00:16:37;;;;;;;;;;;17.30;99.90;;;;;;5015163;28;20030;-72
2022/08/20 00:19:09;;;;;;;27.50;21.63;;;17.30;99.90;;;;;;5028901;28;19932;-72
2022/08/20 00:21:41;;;;;;;24.20;21.60;;;17.30;99.90;;;;;;4975028;28;20046;-72
2022/08/20 00:24:13;;;;;;;26.13;22.52;;;17.40;99.90;;;;;;5007871;28;20073;-72
2022/08/20 00:26:44;;;;;;;28.10;23.45;;;17.40;99.90;;;;;;4983248;28;20053;-72
2022/08/20 00:29:16;;;;;;;26.33;22.38;;;17.40;99.90;;;;;;4981392;28;20073;-72
2022/08/20 00:31:49;;;;;;;20.27;17.52;;;17.40;99.90;;;;;;4993663;28;20408;-72
2022/08/20 00:34:21;;;;;;;22.25;19.60;;;17.40;99.90;;;;;;5005809;28;20042;-72
2022/08/20 00:36:53;;;;;;;23.52;19.05;;;17.50;99.90;;;;;;4993075;28;20506;-72
2022/08/20 00:39:25;;;;;;;20.23;17.25;;;17.50;99.90;;;;;;5001480;28;20040;-72
2022/08/20 00:41:56;;;;;;;21.15;17.55;;;17.50;99.90;;;;;;4983174;28;20514;-72
2022/08/20 00:44:28;;;;;;;21.35;17.95;;;17.50;99.90;;;;;;5006186;28;20077;-72
2022/08/20 00:47:00;;;;;;;20.25;18.13;;;17.60;99.90;;;;;;4966184;28;20060;-72
2022/08/20 00:49:32;;;;;;;19.02;16.52;;;17.60;99.90;;;;;;4985154;28;20057;-72
2022/08/20 00:52:16;;;;;;;19.20;17.23;;;17.60;99.90;;;;;;4994264;28;20049;-72
2022/08/20 00:54:56;;;;;;;21.15;18.95;;;17.60;99.90;;;;;;4991363;28;20064;-72
2022/08/20 00:57:52;;;;;;;19.67;16.08;;;17.60;99.90;;;;;;4984817;28;20198;-72
2022/08/20 01:00:31;;;;;;;18.52;16.55;;;17.60;99.90;;;;;;4982066;28;20138;-72
2022/08/20 01:03:08;;;;;;;19.95;16.75;;;17.60;99.90;;;;;;5003430;28;20045;-72
2022/08/20 01:05:44;;;;;;;19.95;17.85;;;17.60;99.90;;;;;;4986753;28;20046;-72
2022/08/20 01:08:18;;;;;;;23.05;17.92;;;17.60;99.90;;;;;;5006848;28;20049;-72
2022/08/20 01:10:52;;;;;;;20.42;17.88;;;17.50;99.90;;;;;;4992696;28;20076;-72
2022/08/20 01:13:25;;;;;;;18.27;16.30;;;17.50;99.90;;;;;;5005115;28;20050;-72
2022/08/20 01:15:58;;;;;;;18.67;16.57;;;17.50;99.90;;;;;;4986940;28;20136;-72
2022/08/20 01:18:30;;;;;;;20.67;17.75;;;17.60;99.90;;;;;;5010039;28;20053;-72
2022/08/20 01:21:05;;;;;;;22.30;19.13;;;17.50;99.90;;;;;;4997022;28;20085;-72
2022/08/20 01:24:02;;;;;;;22.20;18.23;;;17.50;99.90;;;;;;4993417;28;20136;-72
2022/08/20 01:26:40;;;;;;;23.70;19.73;;;17.50;99.90;;;;;;4997892;28;20050;-72
2022/08/20 01:29:20;;;;;;;20.95;18.70;;;17.50;99.90;;;;;;5001062;28;20046;-72
2022/08/20 01:31:52;;;;;;;20.77;18.55;;;17.50;99.90;;;;;;4980390;28;20416;-72
2022/08/20 01:34:24;;;;;;;22.02;18.55;;;17.50;99.90;;;;;;5013040;28;20073;-72
2022/08/20 01:36:53;;;;;;;28.42;21.60;;;17.50;99.90;;;;;;4995523;28;20087;-72
2022/08/20 01:39:35;;;;;;;22.70;20.30;;;17.50;99.90;;;;;;4994957;28;20381;-72
2022/08/20 01:42:34;;;;;;;24.15;20.55;;;17.50;99.90;;;;;;4995021;28;20046;-72
2022/08/20 01:45:06;;;;;;;26.75;22.55;;;17.40;99.90;;;;;;4993195;28;20050;-72
2022/08/20 01:47:38;;;;;;;23.02;20.48;;;17.50;99.90;;;;;;5009880;28;20053;-72
2022/08/20 01:50:24;;;;;;;25.85;20.77;;;17.40;99.90;;;;;;4977013;28;20046;-72
2022/08/20 01:53:05;;;;;;;24.15;21.42;;;17.30;99.90;;;;;;4992315;28;20473;-72
2022/08/20 01:55:37;;;;;;;24.98;21.45;;;17.30;99.90;;;;;;5011957;28;20435;-72
2022/08/20 01:58:04;;;;;;;25.42;20.52;;;17.30;99.90;;;;;;4995172;28;20045;-72
2022/08/20 02:00:36;;;;;;;27.75;22.15;;;17.30;99.90;;;;;;5011489;28;20428;-72
2022/08/20 02:03:08;;;;;;;26.95;21.15;;;17.20;99.90;;;;;;4987994;28;20081;-72
2022/08/20 02:05:40;;;;;;;23.77;19.38;;;17.20;99.90;;;;;;5010322;28;20048;-72
2022/08/20 02:08:11;;;;;;;23.85;20.80;;;17.20;99.90;;;;;;4995231;28;20046;-72
2022/08/20 02:10:45;;;;;;;23.70;20.75;;;17.20;99.90;;;;;;5007505;28;20052;-72
2022/08/20 02:13:17;;;;;;;23.77;20.17;;;17.20;99.90;;;;;;4994257;28;20046;-72
2022/08/20 02:15:49;;;;;;;23.35;20.42;;;17.20;99.90;;;;;;4995407;28;20041;-72
2022/08/20 02:18:21;;;;;;;22.98;19.73;;;17.20;99.90;;;;;;4994710;28;20046;-72
2022/08/20 02:20:53;;;;;;;23.15;20.27;;;17.20;99.90;;;;;;4994676;28;20038;-72
2022/08/20 02:23:25;;;;;;;22.42;20.00;;;17.20;99.90;;;;;;4993213;28;20042;-72
2022/08/20 02:25:58;;;;;;;21.17;17.55;;;17.20;99.90;;;;;;4978205;28;20073;-72
2022/08/20 02:28:30;;;;;;;18.10;15.63;;;17.20;99.90;;;;;;5011838;28;20149;-72
2022/08/20 02:31:06;;;;;;;19.48;17.10;;;17.30;99.90;;;;;;5012049;28;20509;-72
2022/08/20 02:33:37;;;;;;;22.23;19.85;;;17.30;99.90;;;;;;5012305;28;20046;-72
2022/08/20 02:36:11;;;;;;;21.55;18.60;;;17.30;99.90;;;;;;4992461;28;20060;-72
2022/08/20 02:38:45;;;;;;;21.17;18.60;;;17.30;99.90;;;;;;4994459;28;20060;-72
2022/08/20 02:41:20;;;;;;;21.73;19.23;;;17.30;99.90;;;;;;4967095;28;20038;-72
2022/08/20 02:43:51;;;;;;;22.23;19.75;;;17.20;99.90;;;;;;4993596;28;20056;-72
2022/08/20 02:46:23;;;;;;;21.33;16.67;;;17.20;99.90;;;;;;5007559;28;20046;-72
2022/08/20 02:48:55;;;;;;;22.27;18.13;;;17.20;99.90;;;;;;4993721;28;20064;-72
2022/08/20 02:51:27;;;;;;;19.23;16.17;;;17.20;99.90;;;;;;4990290;28;20051;-72
2022/08/20 02:53:59;;;;;;;17.48;15.38;;;17.20;99.90;;;;;;5005940;28;20050;-72
2022/08/20 02:56:31;;;;;;;17.95;16.08;;;17.20;99.90;;;;;;4994703;28;20413;-72
2022/08/20 02:59:03;;;;;;;18.48;14.85;;;17.30;99.90;;;;;;5051166;23;20044;-71
2022/08/20 03:01:36;;;;;;;17.35;14.32;;;17.30;99.90;;;;;;5051792;28;20051;-71
2022/08/20 03:04:08;;;;;;;17.23;14.43;;;17.30;99.90;;;;;;5028137;28;20053;-71
2022/08/20 03:06:39;;;;;;;15.98;14.27;;;17.30;99.90;;;;;;5034810;28;20283;-71
2022/08/20 03:09:11;;;;;;;20.42;14.70;;;17.30;99.90;;;;;;5030337;28;20045;-70
2022/08/20 03:11:43;;;;;;;19.13;14.32;;;17.40;99.90;;;;;;5034764;28;20045;-71
2022/08/20 03:14:15;;;;;;;16.73;14.85;;;17.30;99.90;;;;;;5032998;28;20053;-70
2022/08/20 03:16:46;;;;;;;19.42;16.15;;;17.30;99.90;;;;;;5050554;28;20131;-71
2022/08/20 03:19:18;;;;;;;19.20;17.10;;;17.30;99.90;;;;;;5050838;28;20150;-71
2022/08/20 03:21:50;;;;;;;18.83;16.10;;;17.30;99.90;;;;;;5034088;28;20048;-71
2022/08/20 03:24:22;;;;;;;19.60;16.83;;;17.20;99.90;;;;;;5051736;28;20039;-70
2022/08/20 03:26:54;;;;;;;20.20;16.95;;;17.20;99.90;;;;;;5033616;28;20055;-71
2022/08/20 03:29:26;;;;;;;18.10;15.65;;;17.20;99.90;;;;;;5052061;28;20037;-70
2022/08/20 03:31:58;;;;;;;19.05;16.38;;;17.20;99.90;;;;;;5051728;28;20033;-71
2022/08/20 03:34:30;;;;;;;18.83;15.93;;;17.20;99.90;;;;;;5051559;28;20490;-71
2022/08/20 03:37:01;;;;;;;20.30;16.13;;;17.20;99.90;;;;;;5033357;28;20049;-71
2022/08/20 03:39:33;;;;;;;19.15;15.43;;;17.20;99.90;;;;;;5034027;28;20095;-71
2022/08/20 03:42:05;;;;;;;18.35;14.82;;;17.20;99.90;;;;;;5033591;28;20376;-71
2022/08/20 03:44:37;;;;;;;19.38;15.05;;;17.10;99.90;;;;;;5050899;28;20065;-71
2022/08/20 03:47:09;;;;;;;20.30;15.30;;;17.10;99.90;;;;;;5035001;28;20509;-71
2022/08/20 03:49:40;;;;;;;18.70;15.57;;;17.10;99.90;;;;;;5051596;28;20044;-71
2022/08/20 03:52:12;;;;;;;16.52;14.38;;;17.10;99.90;;;;;;5051760;28;20315;-70
2022/08/20 03:54:44;;;;;;;18.88;15.52;;;17.10;99.90;;;;;;5049571;28;20076;-71
2022/08/20 03:57:16;;;;;;;16.80;13.80;;;17.00;99.90;;;;;;5045128;28;20065;-70
2022/08/20 03:59:48;;;;;;;16.40;14.05;;;17.10;99.90;;;;;;5050859;28;20063;-71
2022/08/20 04:02:20;;;;;;;17.60;13.85;;;17.10;99.90;;;;;;5051470;28;20049;-71
2022/08/20 04:04:51;;;;;;;15.13;13.52;;;17.00;99.90;;;;;;5051311;28;20039;-71
2022/08/20 04:07:24;;;;;;;17.77;14.80;;;17.10;99.90;;;;;;5050656;28;20036;-70
2022/08/20 04:09:56;;;;;;;14.57;13.05;;;17.10;99.90;;;;;;5051795;28;20526;-72
2022/08/20 04:12:28;;;;;;;16.45;14.38;;;17.10;99.90;;;;;;5034587;28;20404;-71
2022/08/20 04:15:00;;;;;;;16.75;14.38;;;17.10;99.90;;;;;;5050320;28;20051;-70
2022/08/20 04:17:32;;;;;;;16.95;14.90;;;17.00;99.90;;;;;;5050487;28;20048;-71
2022/08/20 04:20:05;;;;;;;15.73;14.10;;;17.00;99.90;;;;;;5051056;28;20053;-70
2022/08/20 04:22:38;;;;;;;23.58;16.00;;;17.10;99.90;;;;;;5050894;28;20495;-71
2022/08/20 04:25:10;;;;;;;16.90;14.87;;;17.00;99.90;;;;;;5050707;28;20048;-71
2022/08/20 04:27:42;;;;;;;15.20;13.60;;;17.00;99.90;;;;;;5051217;28;20041;-72
2022/08/20 04:30:14;;;;;;;16.58;14.43;;;17.10;99.90;;;;;;5051129;28;20056;-71
2022/08/20 04:32:45;;;;;;;17.50;14.80;;;17.00;99.90;;;;;;5051011;28;20044;-70
2022/08/20 04:35:17;;;;;;;15.82;14.00;;;17.00;99.90;;;;;;5038027;28;20495;-71
2022/08/20 04:38:00;;;;;;;16.52;14.70;;;16.90;99.90;;;;;;5047623;28;20048;-71
2022/08/20 04:43:30;;;;;;;16.35;14.65;;;16.90;99.90;;;;;;5022285;28;20041;-70
2022/08/20 04:46:05;;;;;;;15.90;13.27;;;16.90;99.90;;;;;;5046695;28;20143;-71
2022/08/20 04:48:38;;;;;;;17.85;14.40;;;16.90;99.90;;;;;;5025658;28;20059;-70
2022/08/20 04:51:13;;;;;;;16.30;13.10;;;16.90;99.90;;;;;;5053184;28;20045;-71
2022/08/20 04:53:45;;;;;;;16.15;13.30;;;16.90;99.90;;;;;;5037859;28;20037;-71
2022/08/20 04:56:18;;;;;;;16.30;14.48;;;16.90;99.90;;;;;;5044734;28;20047;-71
2022/08/20 04:58:52;;;;;;;15.25;13.32;;;16.90;99.90;;;;;;5053267;28;20037;-71
2022/08/20 05:01:24;;;;;;;16.58;13.63;;;16.90;99.90;;;;;;5053560;28;20055;-70
2022/08/20 05:03:57;;;;;;;14.60;13.02;;;16.90;99.90;;;;;;5053272;28;20033;-71
2022/08/20 05:06:30;;;;;;;15.98;13.45;;;16.90;99.90;;;;;;5053532;28;20048;-71
2022/08/20 05:09:02;;;;;;;15.95;13.68;;;16.80;99.90;;;;;;5054525;28;20404;-70
2022/08/20 05:11:34;;;;;;;16.40;13.50;;;16.80;99.90;;;;;;5054574;28;20045;-70
2022/08/20 05:14:07;;;;;;;17.25;13.88;;;16.80;99.90;;;;;;5053610;28;20661;-71
2022/08/20 05:16:39;;;;;;;14.32;12.75;;;16.80;99.90;;;;;;5054159;28;20041;-70
2022/08/20 05:19:12;;;;;;;16.08;13.05;;;16.80;99.90;;;;;;5053086;28;20049;-71
2022/08/20 05:21:44;;;;;;;14.77;13.20;;;16.80;99.90;;;;;;5054523;28;20049;-71
2022/08/20 05:24:15;;;;;;;15.45;13.85;;;16.80;99.90;;;;;;5036931;28;20295;-70
2022/08/20 05:26:47;;;;;;;15.43;13.18;;;16.80;99.90;;;;;;5054451;28;20045;-71
2022/08/20 05:29:14;;;;;;;13.90;12.43;;;16.80;99.90;;;;;;5053914;28;20394;-71
2022/08/20 05:31:46;;;;;;;13.45;11.93;;;16.80;99.90;;;;;;5036813;28;20057;-71
2022/08/20 05:34:18;;;;;;;14.48;11.88;;;16.80;99.90;;;;;;5035883;28;20052;-70
2022/08/20 05:36:50;;;;;;;13.35;11.55;;;16.90;99.90;;;;;;5054113;28;20406;-70
2022/08/20 05:39:22;;;;;;;14.65;11.65;;;16.90;99.90;;;;;;5053174;28;20059;-71
2022/08/20 05:41:54;;;;;;;12.77;11.40;;;16.90;99.90;;;;;;5053429;28;20087;-71
2022/08/20 05:44:26;;;;;;;13.60;11.38;;;16.90;99.90;;;;;;5035748;28;20056;-71
2022/08/20 05:46:57;;;;;;;13.27;10.43;;;16.90;99.90;;;;;;5053179;28;20505;-71
2022/08/20 05:49:30;;;;;;;12.55;10.65;;;16.90;99.90;;;;;;5054045;28;20041;-71
2022/08/20 05:52:02;;;;;;;13.77;10.90;;;17.00;99.90;;;;;;5053622;28;20041;-70
2022/08/20 05:54:36;;;;;;;13.35;11.75;;;17.00;99.90;;;;;;5053522;28;20037;-71
2022/08/20 05:57:08;;;;;;;12.13;10.82;;;17.00;99.90;;;;;;5053482;28;20045;-70
2022/08/20 05:59:39;;;;;;;14.20;10.85;;;17.00;99.90;;;;;;5035682;28;20045;-71
2022/08/20 06:05:03;;;;;;;13.88;11.57;;;17.00;99.90;;;;;;5053048;28;20521;-71
2022/08/20 06:07:35;;;;;;;12.30;10.87;;;17.00;99.90;;;;;;5033370;28;20053;-70
2022/08/20 06:10:09;;;;;;;13.25;11.50;;;17.00;99.90;;;;;;5053632;28;20499;-71
2022/08/20 06:12:43;;;;;;;15.48;11.73;;;17.00;99.90;;;;;;5051772;28;20045;-71
2022/08/20 06:15:15;;;;;;;15.10;10.88;;;17.10;99.90;;;;;;5032628;28;20088;-71
2022/08/20 06:17:46;;;;;;;11.40;9.25;;;17.00;99.90;;;;;;5053234;28;20048;-70
2022/08/20 06:20:18;;;;;;;10.85;9.65;;;17.10;99.90;;;;;;5044997;28;20036;-71
2022/08/20 06:22:50;;;;;;;11.93;10.00;;;17.10;99.90;;;;;;5049525;28;20391;-70
2022/08/20 06:25:21;;;;;;;10.90;9.75;;;17.10;99.90;;;;;;5035053;28;20041;-70
2022/08/20 06:27:53;;;;;;;11.45;9.82;;;17.10;99.90;;;;;;5049189;28;20119;-71
2022/08/20 06:30:25;;;;;;;10.55;9.45;;;17.20;99.90;;;;;;5053290;28;20048;-71
2022/08/20 06:32:57;;;;;;;12.70;10.35;;;17.20;99.90;;;;;;5053106;28;20517;-70
2022/08/20 06:35:29;;;;;;;12.00;10.23;;;17.20;99.90;;;;;;5047351;28;20517;-70
2022/08/20 06:38:00;;;;;;;10.48;9.38;;;17.20;99.90;;;;;;5035339;28;20045;-70
2022/08/20 06:40:33;;;;;;;11.07;9.05;;;17.30;99.90;;;;;;5053303;28;20041;-71
2022/08/20 06:43:08;;;;;;;12.60;9.57;;;17.30;99.90;;;;;;5048518;28;20046;-70
2022/08/20 06:45:40;;;;;;;10.80;8.65;;;17.40;99.90;;;;;;5050064;28;20041;-71
2022/08/20 06:48:13;;;;;;;10.07;8.63;;;17.40;99.90;;;;;;5036079;28;20041;-70
2022/08/20 06:50:43;;;;;;;9.98;8.98;;;17.50;99.90;;;;;;5035008;28;20491;-70
2022/08/20 06:53:19;;;;;;;10.82;8.60;;;17.50;99.90;;;;;;5035036;28;20503;-71
2022/08/20 06:55:53;;;;;;;11.10;9.13;;;17.60;99.90;;;;;;5044901;28;20052;-72
2022/08/20 06:58:26;;;;;;;9.85;8.85;;;17.60;99.90;;;;;;5047773;28;20048;-71
2022/08/20 07:00:59;;;;;;;9.40;8.45;;;17.70;99.90;;;;;;5043877;28;20056;-71
2022/08/20 07:03:30;;;;;;;9.95;7.53;;;17.70;99.90;;;;;;5002541;28;20071;-70
2022/08/20 07:06:02;;;;;;;11.07;8.70;;;17.70;99.90;;;;;;5051333;28;20072;-71
2022/08/20 07:08:34;;;;;;;9.05;8.15;;;17.90;99.90;;;;;;5051900;28;20499;-71
2022/08/20 07:11:06;;;;;;;7.85;7.05;;;18.00;99.90;;;;;;5051514;28;20061;-71
2022/08/20 07:13:40;;;;;;;9.15;7.20;;;18.10;99.90;;;;;;5051058;28;20037;-71
2022/08/20 07:16:11;;;;;;;8.25;7.43;;;18.10;99.90;;;;;;5050436;28;20045;-71
2022/08/20 07:18:43;;;;;;;9.27;7.82;;;18.20;99.90;;;;;;5051492;28;20041;-71
2022/08/20 07:21:16;;;;;;;8.05;7.28;;;18.30;99.90;;;;;;5042932;28;20037;-71
2022/08/20 07:23:48;;;;;;;15.98;8.57;;;18.30;99.90;;;;;;5051216;28;20068;-71
2022/08/20 07:26:19;;;;;;;9.75;7.63;;;18.30;99.90;;;;;;5051193;28;20064;-72
2022/08/20 07:28:53;;;;;;;7.45;6.53;;;18.40;99.90;;;;;;5051002;28;20087;-72
2022/08/20 07:34:15;;;;;;;9.90;7.22;;;18.50;99.90;;;;;;5050729;28;19921;-71
2022/08/20 07:36:47;;;;;;;8.90;7.53;;;18.60;99.90;;;;;;5049088;28;20135;-71
2022/08/20 07:39:20;;;;;;;8.33;7.50;;;18.60;99.90;;;;;;5050900;28;20049;-71
2022/08/20 07:42:01;;;;;;;8.67;7.87;;;18.70;99.90;;;;;;5050992;28;20040;-70
2022/08/20 07:44:33;;;;;;;8.07;7.10;;;18.80;99.90;;;;;;5049500;28;20037;-71
2022/08/20 07:47:05;;;;;;;10.35;7.45;;;18.90;99.90;;;;;;5048109;28;20044;-71
2022/08/20 07:49:39;;;;;;;8.25;7.45;;;18.90;99.90;;;;;;5051173;28;20398;-71
2022/08/20 07:52:12;;;;;;;8.40;7.50;;;18.90;99.90;;;;;;5047839;28;20539;-70
2022/08/20 07:54:43;;;;;;;8.10;7.30;;;19.00;99.90;;;;;;5050457;28;20033;-71
2022/08/20 07:57:16;;;;;;;8.25;7.45;;;19.10;99.90;;;;;;5047917;28;20049;-70
2022/08/20 07:59:47;;;;;;;7.90;6.77;;;19.30;99.90;;;;;;5050857;28;20055;-70
2022/08/20 08:02:19;;;;;;;8.60;7.60;;;19.30;99.90;;;;;;5033337;28;20047;-70
2022/08/20 08:04:51;;;;;;;8.85;7.60;;;19.40;99.90;;;;;;5047905;28;20052;-70
2022/08/20 08:07:25;;;;;;;8.63;6.95;;;19.40;99.90;;;;;;5050602;28;20044;-70
2022/08/20 08:09:57;;;;;;;8.25;7.45;;;19.50;99.90;;;;;;5047772;28;20041;-71
2022/08/20 08:12:35;;;;;;;11.00;7.45;;;19.60;99.90;;;;;;5047440;28;20550;-70
2022/08/20 08:15:13;;;;;;;8.93;7.15;;;19.60;99.90;;;;;;5047566;28;20055;-70
2022/08/20 08:17:47;;;;;;;7.72;6.93;;;19.70;99.90;;;;;;5048164;28;20052;-72
2022/08/20 08:20:20;;;;;;;9.15;7.28;;;19.80;99.90;;;;;;5049291;28;20037;-70
2022/08/20 08:22:52;;;;;;;7.68;6.97;;;19.90;99.90;;;;;;5047225;28;20083;-71
2022/08/20 08:25:24;;;;;;;7.85;6.97;;;19.90;99.90;;;;;;5051247;28;20067;-71
2022/08/20 08:27:56;;;;;;;6.85;6.25;;;19.90;99.90;;;;;;5037721;28;20033;-71
2022/08/20 08:30:27;;;;;;;6.40;5.80;;;19.90;99.90;;;;;;5054807;28;20068;-70
2022/08/20 08:35:49;;;;;;;9.05;6.22;;;20.00;99.90;;;;;;5054066;28;20041;-71
2022/08/20 08:38:22;;;;;;;7.45;6.15;;;20.00;99.90;;;;;;5054391;28;20051;-71
2022/08/20 08:41:02;;;;;;;7.47;6.13;;;20.00;99.90;;;;;;5054526;28;20119;-71
2022/08/20 08:43:34;;;;;;;7.60;6.25;;;20.10;99.90;;;;;;5052837;28;20302;-71
2022/08/20 08:46:09;;;;;;;9.13;6.28;;;20.20;99.90;;;;;;5053263;28;20037;-71
2022/08/20 08:48:44;;;;;;;5.68;5.18;;;20.20;99.90;;;;;;5054400;28;20518;-71
2022/08/20 08:51:32;;;;;;;7.22;6.30;;;20.30;99.90;;;;;;5054468;28;20037;-70
2022/08/20 08:54:06;;;;;;;5.88;5.28;;;20.10;99.90;;;;;;5051716;28;20134;-71
2022/08/20 08:56:39;;;;;;;7.97;5.25;;;20.10;99.90;;;;;;5054515;28;20683;-71
2022/08/20 08:59:10;;;;;;;6.82;5.95;;;20.00;99.90;;;;;;5050739;28;20033;-72
2022/08/20 09:01:54;;;;;;;5.97;5.38;;;20.00;99.90;;;;;;5052504;28;20459;-71
2022/08/20 09:04:29;;;;;;;;;;;19.90;99.90;;;;;;5035090;28;20395;-70
2022/08/20 09:07:03;;;;;;;6.50;5.78;;;19.90;99.90;;;;;;5066002;23;20302;-89
2022/08/20 09:09:35;;;;;;;6.65;5.63;;;19.90;99.90;;;;;;5040446;28;20068;-88
2022/08/20 09:12:05;;;;;;;7.03;5.47;;;19.90;99.90;;;;;;5040104;28;20045;-89
2022/08/20 09:14:37;;;;;;;6.38;5.53;;;20.00;99.90;;;;;;5036989;28;20079;-88
2022/08/20 09:17:09;;;;;;;6.65;5.70;;;20.00;99.90;;;;;;5020511;28;20112;-89
2022/08/20 09:19:36;;;;;;;8.02;5.38;;;20.00;99.90;;;;;;5025530;23;20058;-72
2022/08/20 09:22:10;;;;;;;5.28;4.78;;;19.90;99.90;;;;;;5001311;28;20068;-71
2022/08/20 09:24:43;;;;;;;8.43;6.25;;;19.90;99.90;;;;;;4996655;28;20038;-70
2022/08/20 09:27:14;;;;;;;7.30;5.60;;;20.00;99.90;;;;;;5003880;28;20045;-72
2022/08/20 09:29:46;;;;;;;6.43;5.20;;;20.00;99.90;;;;;;4996952;28;20049;-71
2022/08/20 09:32:19;;;;;;;7.43;5.88;;;19.90;99.90;;;;;;5008208;28;20480;-72
2022/08/20 09:34:57;;;;;;;6.68;6.07;;;19.90;99.90;;;;;;4991426;28;20526;-73
2022/08/20 09:37:30;;;;;;;6.35;5.22;;;19.90;99.90;;;;;;5012338;28;20050;-71
2022/08/20 09:40:03;;;;;;;5.07;4.57;;;19.90;99.90;;;;;;4985176;28;20045;-71
2022/08/20 09:42:37;;;;;;;5.63;5.10;;;20.00;99.90;;;;;;4988326;28;20069;-71
2022/08/20 09:45:10;;;;;;;5.63;4.95;;;20.10;99.90;;;;;;5004952;28;20045;-71
2022/08/20 09:47:43;;;;;;;6.60;5.68;;;20.30;99.90;;;;;;4989112;28;20049;-71
2022/08/20 09:50:14;;;;;;;6.15;5.55;;;20.40;99.90;;;;;;4985394;28;20050;-71
2022/08/20 09:52:49;;;;;;;6.60;5.47;;;20.50;99.90;;;;;;4997207;28;20042;-70
2022/08/20 09:55:23;;;;;;;6.35;5.78;;;20.50;99.90;;;;;;5004153;28;20052;-72
2022/08/20 09:57:55;;;;;;;6.72;5.22;;;20.60;99.90;;;;;;4980037;28;20496;-71
2022/08/20 10:00:27;;;;;;;6.72;5.88;;;20.80;99.90;;;;;;5002893;28;20049;-71
2022/08/20 10:03:00;;;;;;;6.10;5.50;;;20.90;99.90;;;;;;4996491;28;20575;-71
2022/08/20 10:05:32;;;;;;;;;;;20.80;99.90;;;;;;4997258;28;20042;-72
2022/08/20 10:08:06;;;;;;;6.22;5.63;;;20.80;99.90;;;;;;5009505;28;20368;-71
2022/08/20 10:10:38;;;;;;;7.80;5.93;;;20.90;99.90;;;;;;5014112;28;20064;-71
2022/08/20 10:13:05;;;;;;;7.78;6.38;;;20.90;99.90;;;;;;5012897;28;20044;-71
2022/08/20 10:15:32;;;;;;;7.07;6.00;;;20.80;99.90;;;;;;5013212;28;20038;-71
2022/08/20 10:18:06;;;;;;;6.18;5.57;;;20.80;99.90;;;;;;4995714;28;20070;-73
2022/08/20 10:20:38;;;;;;;6.57;5.95;;;20.80;99.90;;;;;;5002738;28;20080;-71
2022/08/20 10:23:10;;;;;;;6.32;5.65;;;21.00;99.90;;;;;;4996890;28;20052;-71
2022/08/20 10:25:42;;;;;;;6.35;5.70;;;21.20;99.90;;;;;;4991738;28;20073;-71
2022/08/20 10:28:14;;;;;;;6.22;5.63;;;21.30;99.90;;;;;;5005979;28;20658;-71
2022/08/20 10:30:45;;;;;;;6.55;5.95;;;21.40;99.90;;;;;;4995485;28;20042;-71
2022/08/20 10:33:17;;;;;;;5.25;4.82;;;21.40;99.90;;;;;;5013181;28;20046;-71
2022/08/20 10:35:49;;;;;;;5.95;5.22;;;21.40;99.90;;;;;;5012156;28;20045;-71
2022/08/20 10:38:21;;;;;;;6.13;4.45;;;21.50;99.90;;;;;;4995610;28;20066;-71
2022/08/20 10:40:52;;;;;;;6.20;5.20;;;21.50;99.90;;;;;;5005733;28;20046;-71
2022/08/20 10:43:24;;;;;;;7.60;4.82;;;21.50;99.90;;;;;;5009834;28;20041;-72
2022/08/20 10:45:56;;;;;;;5.03;4.53;;;21.50;99.90;;;;;;4979594;28;20054;-71
2022/08/20 10:48:28;;;;;;;6.38;5.35;;;21.60;99.90;;;;;;4991004;28;20526;-71
2022/08/20 10:51:00;;;;;;;5.47;4.97;;;21.60;99.90;;;;;;4995409;28;20408;-71
2022/08/20 10:53:32;;;;;;;4.80;4.40;;;21.60;99.90;;;;;;5012851;28;20045;-71
2022/08/20 10:56:04;;;;;;;5.15;4.72;;;21.70;99.90;;;;;;4994755;28;20064;-71
2022/08/20 10:58:36;;;;;;;6.57;5.40;;;21.70;99.90;;;;;;5003318;28;20037;-70
2022/08/20 11:01:08;;;;;;;5.47;4.97;;;21.70;99.90;;;;;;4992875;28;20050;-72
2022/08/20 11:03:39;;;;;;;5.05;4.55;;;21.70;99.90;;;;;;4995114;28;20050;-71
2022/08/20 11:06:11;;;;;;;4.40;4.00;;;21.70;99.90;;;;;;5011619;28;20042;-71
2022/08/20 11:08:38;;;;;;;4.25;3.85;;;21.80;99.90;;;;;;5012490;28;20067;-72
2022/08/20 11:11:10;;;;;;;5.18;4.60;;;21.80;99.90;;;;;;5009029;28;20505;-71
2022/08/20 11:13:41;;;;;;;5.57;4.70;;;21.80;99.90;;;;;;5005917;28;20038;-71
2022/08/20 11:16:13;;;;;;;5.43;4.93;;;21.80;99.90;;;;;;4995148;28;20046;-71
2022/08/20 11:18:45;;;;;;;5.68;4.90;;;21.80;99.90;;;;;;4987754;28;20068;-72
2022/08/20 11:21:16;;;;;;;10.95;5.18;;;21.90;99.90;;;;;;5012438;28;20096;-71
2022/08/20 11:23:48;;;;;;;4.72;4.32;;;22.00;99.90;;;;;;4994795;28;20053;-71
2022/08/20 11:26:22;;;;;;;4.78;4.38;;;22.10;99.90;;;;;;4994023;28;20500;-71
2022/08/20 11:28:54;;;;;;;4.25;3.95;;;22.10;99.90;;;;;;4994444;28;20488;-71
2022/08/20 11:31:26;;;;;;;4.40;4.00;;;22.00;99.90;;;;;;4994568;28;20041;-73
2022/08/20 11:33:57;;;;;;;5.85;4.50;;;21.90;99.90;;;;;;4994266;28;20133;-70
2022/08/20 11:36:30;;;;;;;6.53;4.95;;;22.00;99.90;;;;;;5008557;28;20061;-71
2022/08/20 11:39:02;;;;;;;6.00;4.80;;;22.10;99.90;;;;;;4978987;28;20149;-71
2022/08/20 11:41:34;;;;;;;6.00;4.53;;;22.10;99.90;;;;;;5011905;28;20124;-71
2022/08/20 11:44:06;;;;;;;4.00;3.70;;;22.00;99.90;;;;;;5011943;28;20046;-71
2022/08/20 11:46:37;;;;;;;4.70;4.30;;;21.90;99.90;;;;;;4994312;28;20056;-71
2022/08/20 11:49:09;;;;;;;7.10;3.80;;;21.90;99.90;;;;;;5005982;28;20046;-72
2022/08/20 11:51:41;;;;;;;2.83;2.25;;;21.80;99.90;;;;;;4978844;28;20046;-71
2022/08/20 11:54:13;;;;;;;3.92;3.22;;;21.70;99.90;;;;;;5011799;28;20396;-72
2022/08/20 11:56:44;;;;;;;2.70;2.50;;;21.60;99.90;;;;;;4994236;28;20061;-71
2022/08/20 11:59:17;;;;;;;3.60;2.53;;;21.30;99.90;;;;;;4987776;28;20050;-71
2022/08/20 12:01:49;;;;;;;3.97;2.63;;;21.10;99.90;;;;;;5006243;28;20096;-71
2022/08/20 12:04:21;;;;;;;3.20;2.90;;;21.10;99.90;;;;;;5006645;28;20070;-71
2022/08/20 12:06:52;;;;;;;3.90;3.13;;;20.90;99.90;;;;;;4994977;28;20046;-73
2022/08/20 12:09:24;;;;;;;3.85;2.78;;;20.90;99.90;;;;;;5011701;28;20049;-71
2022/08/20 12:11:56;;;;;;;3.20;2.88;;;20.80;99.90;;;;;;4993991;28;20038;-70
2022/08/20 12:14:27;;;;;;;3.72;2.78;;;20.80;99.90;;;;;;4977454;28;20052;-71
2022/08/20 12:17:12;;;;;;;3.25;2.95;;;20.70;99.90;;;;;;5010674;28;20045;-73
2022/08/20 12:19:44;;;;;;;3.45;2.90;;;20.70;99.90;;;;;;5008267;28;20053;-72
2022/08/20 12:22:16;;;;;;;3.90;3.20;;;20.70;99.90;;;;;;4994975;28;20411;-72
2022/08/20 12:24:48;;;;;;;3.08;2.78;;;20.70;99.90;;;;;;4993662;28;20530;-72
2022/08/20 12:27:27;;;;;;;3.70;3.35;;;20.70;99.90;;;;;;4978394;28;20046;-71
2022/08/20 12:29:56;;;;;;;5.28;3.30;;;20.70;99.90;;;;;;4986073;28;20053;-72
2022/08/20 12:32:29;;;;;;;3.58;2.63;;;20.70;99.90;;;;;;4978487;28;20067;-72
2022/08/20 12:34:57;;;;;;;3.25;2.65;;;20.60;99.90;;;;;;5011188;28;20046;-72
2022/08/20 12:37:30;;;;;;;2.20;1.90;;;20.50;99.90;;;;;;5011366;28;20104;-72
2022/08/20 12:40:06;;;;;;;1.98;1.58;;;20.40;99.90;;;;;;4993782;28;20515;-72
2022/08/20 12:42:37;;;;;;;3.17;2.55;;;20.20;99.90;;;;;;5000350;28;20046;-73
2022/08/20 12:45:05;;;;;;;3.67;1.73;;;19.90;99.90;;;;;;5011056;28;20466;-73
2022/08/20 12:47:40;;;;;;;3.55;1.30;;;19.70;99.90;;;;;;4999035;28;20106;-72
2022/08/20 12:50:24;;;;;;;4.30;2.47;;;19.50;99.90;;;;;;4991795;28;20065;-72
2022/08/20 12:52:55;;;;;;;2.15;1.63;;;19.40;99.90;;;;;;5010123;28;20571;-72
2022/08/20 12:55:22;;;;;;;1.92;1.50;;;19.40;99.90;;;;;;4987090;28;20050;-72
2022/08/20 12:57:58;;;;;;;1.58;1.38;;;19.30;99.90;;;;;;4988698;28;20058;-71
2022/08/20 13:00:36;;;;;;;3.75;1.60;;;19.40;99.90;;;;;;4994626;28;20045;-72
2022/08/20 13:03:09;;;;;;;2.78;1.95;;;19.50;99.90;;;;;;4985029;28;20088;-71
2022/08/20 13:05:42;;;;;;;2.50;2.30;;;19.50;99.90;;;;;;5001124;28;20045;-72
2022/08/20 13:08:13;;;;;;;4.03;2.70;;;19.50;99.90;;;;;;4994112;28;20042;-73
2022/08/20 13:10:44;;;;;;;2.83;2.53;;;19.60;99.90;;;;;;4993695;28;20050;-72
2022/08/20 13:13:16;;;;;;;2.65;2.25;;;19.50;99.90;;;;;;4991920;28;20420;-72
2022/08/20 13:15:49;;;;;;;3.85;2.80;;;19.50;99.90;;;;;;4981479;28;20538;-72
2022/08/20 13:18:21;;;;;;;5.90;2.85;;;19.40;99.90;;;;;;4985828;28;20057;-72